Time;durP1;ratioP1;P1;durP2;ratioP2;P2;SDS_P1;SDS_P2;PMS_P1;PMS_P2;Temp;Humidity;BMP_temperature;BMP_pressure;BME280_temperature;BME280_humidity;BME280_pressure;Samples;Min_cycle;Max_cycle;Signal;HPM_P1;HPM_P2
2023/05/26 00:01:57;;;;;;;16.92;12.23;;;12.60;99.90;;;;;;5041440;28;20238;-83
2023/05/26 00:04:25;;;;;;;16.33;11.73;;;12.50;99.90;;;;;;5042489;28;20551;-85
2023/05/26 00:06:59;;;;;;;14.73;13.23;;;12.50;99.90;;;;;;5043382;28;20222;-82
2023/05/26 00:09:27;;;;;;;14.77;12.32;;;12.60;99.90;;;;;;5053224;28;20361;-82
2023/05/26 00:11:53;;;;;;;22.45;14.25;;;12.50;99.90;;;;;;5049205;28;20227;-84
2023/05/26 00:14:20;;;;;;;15.43;13.82;;;12.50;99.90;;;;;;5042439;28;20267;-84
2023/05/26 00:16:47;;;;;;;18.35;14.50;;;12.40;99.90;;;;;;5043092;28;20267;-84
2023/05/26 00:19:17;;;;;;;18.35;15.15;;;12.40;99.90;;;;;;5043784;28;20203;-84
2023/05/26 00:21:44;;;;;;;19.15;15.60;;;12.50;99.90;;;;;;5041900;28;20197;-84
2023/05/26 00:24:11;;;;;;;25.33;16.35;;;12.50;99.90;;;;;;5048610;28;20271;-85
2023/05/26 00:26:39;;;;;;;23.90;16.23;;;12.50;99.90;;;;;;5042658;28;20210;-85
2023/05/26 00:29:06;;;;;;;21.23;15.15;;;12.60;99.90;;;;;;5042370;28;20303;-84
2023/05/26 00:31:53;;;;;;;22.25;15.38;;;12.70;99.90;;;;;;5057716;28;20219;-89
2023/05/26 00:34:20;;;;;;;24.17;15.90;;;12.50;99.90;;;;;;5060501;28;20224;-85
2023/05/26 00:36:47;;;;;;;19.98;15.55;;;12.60;99.90;;;;;;5061302;28;20236;-83
2023/05/26 00:39:15;;;;;;;20.25;15.82;;;12.60;99.90;;;;;;5047683;28;20196;-83
2023/05/26 00:41:43;;;;;;;21.65;17.10;;;12.60;99.90;;;;;;5042518;28;20250;-84
2023/05/26 00:44:10;;;;;;;17.45;14.95;;;12.60;99.90;;;;;;5041637;28;20424;-84
2023/05/26 00:46:37;;;;;;;21.80;16.60;;;12.60;99.90;;;;;;5047788;28;20208;-84
2023/05/26 00:49:04;;;;;;;21.10;15.75;;;12.50;99.90;;;;;;5044103;28;20239;-85
2023/05/26 00:51:33;;;;;;;18.40;14.32;;;12.40;99.90;;;;;;5041862;28;20208;-82
2023/05/26 00:54:00;;;;;;;22.50;16.42;;;12.20;99.90;;;;;;5042366;28;20210;-80
2023/05/26 00:59:51;;;;;;;20.48;16.23;;;12.20;99.90;;;;;;5041158;28;20208;-84
2023/05/26 01:02:20;;;;;;;20.00;15.30;;;12.40;99.90;;;;;;5042686;28;20207;-84
2023/05/26 01:04:52;;;;;;;18.88;14.57;;;12.50;99.90;;;;;;5039457;28;20196;-88
2023/05/26 01:07:20;;;;;;;21.08;15.70;;;12.50;99.90;;;;;;5054269;28;20191;-87
2023/05/26 01:09:49;;;;;;;19.05;15.43;;;12.60;99.90;;;;;;5053177;28;20243;-89
2023/05/26 01:12:25;;;;;;;18.73;15.13;;;12.70;99.90;;;;;;5055309;28;20184;-83
2023/05/26 01:15:00;;;;;;;19.20;13.73;;;12.60;99.90;;;;;;5062129;28;20208;-83
2023/05/26 01:17:32;;;;;;;20.35;15.32;;;12.80;99.90;;;;;;5048366;28;20216;-84
2023/05/26 01:20:17;;;;;;;18.27;15.50;;;12.80;99.90;;;;;;5044211;28;20622;-83
2023/05/26 01:22:47;;;;;;;20.48;15.60;;;12.90;99.90;;;;;;5045716;28;20208;-83
2023/05/26 01:25:44;;;;;;;22.80;13.18;;;13.30;99.90;;;;;;5057731;28;20497;-83
2023/05/26 01:28:26;;;;;;;19.55;13.43;;;13.10;99.90;;;;;;5046395;28;20200;-84
2023/05/26 01:30:53;;;;;;;16.88;14.15;;;13.30;99.90;;;;;;5042776;28;20210;-84
2023/05/26 01:33:20;;;;;;;20.25;12.98;;;13.50;99.90;;;;;;5039918;28;20224;-84
2023/05/26 01:35:47;;;;;;;17.42;13.15;;;13.50;99.90;;;;;;5036207;28;20267;-85
2023/05/26 01:38:15;;;;;;;16.50;13.32;;;13.50;99.90;;;;;;5050201;28;20228;-80
2023/05/26 01:40:48;;;;;;;16.77;12.75;;;13.50;99.90;;;;;;5051370;28;20619;-85
2023/05/26 01:44:08;;;;;;;16.17;12.50;;;13.60;99.90;;;;;;5056053;28;20201;-85
2023/05/26 01:46:47;;;;;;;13.15;11.82;;;13.60;99.90;;;;;;4993960;28;20239;-85
2023/05/26 01:49:16;;;;;;;17.17;11.32;;;13.50;99.90;;;;;;5032202;28;20209;-79
2023/05/26 01:51:57;;;;;;;14.30;10.05;;;13.50;99.90;;;;;;5037240;28;20276;-84
2023/05/26 01:54:27;;;;;;;13.88;10.07;;;13.50;99.90;;;;;;5043928;28;20392;-83
2023/05/26 01:56:58;;;;;;;12.50;10.60;;;13.30;99.90;;;;;;5031442;28;20239;-81
2023/05/26 01:59:26;;;;;;;14.07;11.32;;;13.10;99.90;;;;;;5060203;28;20210;-81
2023/05/26 02:01:53;;;;;;;13.75;10.40;;;13.10;99.90;;;;;;5048312;28;20197;-87
2023/05/26 02:04:20;;;;;;;14.93;11.73;;;13.00;99.90;;;;;;5042519;28;20204;-80
2023/05/26 02:06:50;;;;;;;12.43;10.23;;;13.00;99.90;;;;;;5039800;28;20207;-85
2023/05/26 02:09:20;;;;;;;15.27;11.55;;;13.00;99.90;;;;;;5048028;28;20227;-84
2023/05/26 02:11:47;;;;;;;14.95;13.20;;;13.00;99.90;;;;;;5055376;28;20208;-83
2023/05/26 02:14:15;;;;;;;16.50;10.35;;;13.10;99.90;;;;;;5029309;28;20258;-85
2023/05/26 02:16:43;;;;;;;12.32;10.18;;;13.00;99.90;;;;;;5045447;28;20205;-85
2023/05/26 02:19:12;;;;;;;11.00;9.88;;;13.00;99.90;;;;;;5036519;28;20209;-87
2023/05/26 02:21:40;;;;;;;10.77;9.65;;;13.10;99.90;;;;;;5038468;28;20224;-86
2023/05/26 02:24:08;;;;;;;13.68;11.00;;;13.00;99.90;;;;;;5044654;28;20386;-85
2023/05/26 02:26:39;;;;;;;11.43;10.27;;;13.10;99.90;;;;;;5044904;28;20212;-87
2023/05/26 02:29:06;;;;;;;9.25;8.30;;;13.20;99.90;;;;;;5040603;28;20218;-81
2023/05/26 02:31:37;;;;;;;12.30;10.10;;;13.30;99.90;;;;;;5049978;28;20207;-86
2023/05/26 02:34:10;;;;;;;11.85;9.40;;;13.30;99.90;;;;;;5044050;28;20218;-81
2023/05/26 02:36:37;;;;;;;10.18;8.40;;;13.40;99.90;;;;;;5043207;28;20196;-84
2023/05/26 02:39:06;;;;;;;12.35;11.07;;;13.40;99.90;;;;;;5045554;28;20240;-83
2023/05/26 02:41:38;;;;;;;16.08;10.82;;;13.30;99.90;;;;;;5049879;28;20686;-78
2023/05/26 02:44:05;;;;;;;12.07;10.27;;;13.30;99.90;;;;;;5057906;28;20204;-81
2023/05/26 02:46:32;;;;;;;13.23;9.98;;;13.20;99.90;;;;;;5045198;28;20493;-84
2023/05/26 02:49:01;;;;;;;14.32;11.10;;;13.20;99.90;;;;;;5045070;28;20200;-84
2023/05/26 02:51:28;;;;;;;11.10;9.15;;;13.20;99.90;;;;;;5042310;28;20227;-81
2023/05/26 02:53:55;;;;;;;11.05;9.70;;;13.30;99.90;;;;;;5050856;28;20196;-84
2023/05/26 02:56:22;;;;;;;10.35;9.10;;;13.30;99.90;;;;;;5044645;28;20199;-79
2023/05/26 02:58:49;;;;;;;13.05;9.45;;;13.40;99.90;;;;;;5030602;28;20399;-85
2023/05/26 03:01:16;;;;;;;9.30;7.45;;;13.30;99.90;;;;;;5042761;28;20196;-84
2023/05/26 03:03:43;;;;;;;13.05;9.57;;;13.30;99.90;;;;;;5044080;28;20215;-84
2023/05/26 03:06:12;;;;;;;11.95;8.90;;;13.50;99.90;;;;;;5049144;28;20214;-85
2023/05/26 03:08:38;;;;;;;14.82;10.55;;;13.70;99.90;;;;;;5042445;28;20200;-84
2023/05/26 03:11:05;;;;;;;14.25;10.50;;;13.70;99.90;;;;;;5047783;28;20284;-83
2023/05/26 03:13:37;;;;;;;11.35;8.80;;;13.90;99.90;;;;;;5063564;28;20246;-85
2023/05/26 03:16:05;;;;;;;17.95;9.23;;;13.80;99.90;;;;;;5046228;28;20644;-86
2023/05/26 03:18:32;;;;;;;9.73;8.73;;;13.80;99.90;;;;;;5048405;28;20228;-83
2023/05/26 03:21:00;;;;;;;12.60;10.20;;;13.70;99.90;;;;;;5045603;28;20283;-78
2023/05/26 03:23:27;;;;;;;13.02;9.38;;;13.80;99.90;;;;;;5048886;28;20204;-83
2023/05/26 03:25:54;;;;;;;9.05;7.60;;;13.80;99.90;;;;;;5046633;28;20209;-83
2023/05/26 03:28:22;;;;;;;12.90;8.50;;;14.00;99.90;;;;;;5047060;28;20269;-84
2023/05/26 03:30:52;;;;;;;12.23;9.27;;;13.90;99.90;;;;;;5033623;28;20200;-80
2023/05/26 03:33:19;;;;;;;9.95;8.27;;;13.70;99.90;;;;;;5042923;28;20529;-79
2023/05/26 03:35:50;;;;;;;8.43;7.53;;;13.80;99.90;;;;;;5051638;28;20259;-80
2023/05/26 03:38:17;;;;;;;12.88;8.65;;;13.80;99.90;;;;;;5047325;28;20227;-83
2023/05/26 03:40:46;;;;;;;14.65;8.95;;;13.80;99.90;;;;;;5025990;28;20216;-86
2023/05/26 03:43:12;;;;;;;11.18;9.02;;;13.70;99.90;;;;;;5049803;28;20196;-82
2023/05/26 03:45:41;;;;;;;14.98;9.30;;;13.90;99.90;;;;;;5045105;28;20412;-81
2023/05/26 03:48:12;;;;;;;15.13;9.45;;;13.90;99.90;;;;;;5042695;28;20217;-85
2023/05/26 03:50:41;;;;;;;10.52;9.30;;;14.00;99.90;;;;;;5030191;28;20264;-83
2023/05/26 03:53:10;;;;;;;13.20;9.07;;;14.20;99.90;;;;;;5042013;28;20208;-86
2023/05/26 03:55:37;;;;;;;12.80;8.73;;;14.10;99.90;;;;;;5058737;28;20188;-87
2023/05/26 03:58:04;;;;;;;11.63;9.15;;;14.40;99.90;;;;;;5050879;28;20227;-83
2023/05/26 04:00:32;;;;;;;13.80;9.60;;;14.30;99.90;;;;;;5047607;28;20210;-86
2023/05/26 04:02:59;;;;;;;14.50;8.48;;;14.20;99.90;;;;;;5047435;28;20212;-85
2023/05/26 04:05:26;;;;;;;11.05;8.60;;;14.20;99.90;;;;;;5047153;28;20676;-87
2023/05/26 04:07:56;;;;;;;8.95;8.00;;;14.30;99.90;;;;;;5051698;28;20201;-86
2023/05/26 04:10:23;;;;;;;11.15;8.52;;;14.30;99.90;;;;;;5046516;28;20220;-86
2023/05/26 04:12:52;;;;;;;12.73;8.55;;;14.30;99.90;;;;;;5049228;28;20221;-86
2023/05/26 04:15:19;;;;;;;14.57;9.07;;;14.40;99.90;;;;;;5047595;28;20209;-80
2023/05/26 04:17:49;;;;;;;9.93;7.80;;;14.30;99.90;;;;;;5043482;28;20292;-80
2023/05/26 04:20:19;;;;;;;10.18;8.10;;;14.00;99.90;;;;;;5026536;28;20196;-84
2023/05/26 04:22:47;;;;;;;16.83;8.52;;;13.90;99.90;;;;;;5044421;28;20199;-88
2023/05/26 04:25:14;;;;;;;11.70;8.65;;;14.00;99.90;;;;;;5070924;28;20208;-86
2023/05/26 04:27:43;;;;;;;18.02;8.93;;;13.90;99.90;;;;;;5055827;28;20200;-87
2023/05/26 04:30:10;;;;;;;9.15;8.20;;;13.90;99.90;;;;;;5037078;28;20231;-87
2023/05/26 04:32:37;;;;;;;18.30;8.88;;;14.00;99.90;;;;;;5045799;28;20196;-85
2023/05/26 04:35:05;;;;;;;13.27;8.85;;;13.90;99.90;;;;;;5043782;28;20235;-85
2023/05/26 04:37:34;;;;;;;11.00;7.43;;;14.00;99.90;;;;;;5048407;28;20251;-87
2023/05/26 04:40:05;;;;;;;13.48;8.38;;;14.10;99.90;;;;;;5046529;28;20212;-85
2023/05/26 04:42:37;;;;;;;12.60;8.32;;;14.20;99.90;;;;;;5039967;28;20214;-88
2023/05/26 04:45:05;;;;;;;14.60;8.35;;;14.30;99.90;;;;;;5032616;28;20543;-83
2023/05/26 04:47:40;;;;;;;11.13;7.68;;;14.40;99.90;;;;;;5037817;28;20204;-88
2023/05/26 04:50:07;;;;;;;11.50;8.05;;;14.50;99.90;;;;;;5039023;28;20227;-83
2023/05/26 04:52:34;;;;;;;9.45;6.72;;;14.70;99.90;;;;;;5041935;28;20208;-81
2023/05/26 04:55:01;;;;;;;12.18;7.55;;;14.90;99.90;;;;;;5023648;28;20222;-86
2023/05/26 04:57:30;;;;;;;16.05;7.95;;;15.00;99.90;;;;;;5041345;28;20243;-88
2023/05/26 04:59:57;;;;;;;15.43;8.37;;;15.20;99.90;;;;;;5041745;28;20208;-81
2023/05/26 05:02:25;;;;;;;11.70;8.27;;;15.20;99.90;;;;;;5047673;28;20470;-86
2023/05/26 05:04:52;;;;;;;18.33;7.90;;;15.10;99.90;;;;;;5044704;28;20453;-84
2023/05/26 05:07:22;;;;;;;7.85;5.85;;;15.20;99.90;;;;;;5041178;28;20205;-83
2023/05/26 05:09:52;;;;;;;12.43;8.73;;;15.20;99.90;;;;;;5063073;22;20233;-87
2023/05/26 05:12:22;;;;;;;10.73;7.32;;;15.30;99.90;;;;;;5054199;28;20496;-83
2023/05/26 05:14:50;;;;;;;8.90;7.13;;;15.40;99.90;;;;;;5058959;28;20666;-86
2023/05/26 05:17:18;;;;;;;14.90;7.73;;;15.50;99.90;;;;;;5062916;28;20505;-84
2023/05/26 05:19:47;;;;;;;15.07;9.23;;;15.70;99.90;;;;;;5067691;28;20444;-88
2023/05/26 05:22:31;;;;;;;14.73;7.23;;;15.60;99.90;;;;;;5059657;28;20497;-85
2023/05/26 05:24:58;;;;;;;17.47;8.40;;;15.60;99.90;;;;;;5050086;28;20449;-85
2023/05/26 05:27:25;;;;;;;11.90;7.20;;;15.80;99.90;;;;;;5065687;28;20460;-88
2023/05/26 05:29:52;;;;;;;9.87;6.83;;;16.00;99.90;;;;;;5069694;28;20540;-83
2023/05/26 05:32:19;;;;;;;7.27;6.20;;;16.00;99.90;;;;;;5049443;28;20496;-84
2023/05/26 05:34:48;;;;;;;10.07;6.80;;;15.90;99.90;;;;;;5078631;28;20529;-84
2023/05/26 05:37:15;;;;;;;15.60;7.93;;;16.00;99.90;;;;;;5070276;28;20518;-86
2023/05/26 05:39:46;;;;;;;9.03;7.20;;;16.00;99.90;;;;;;5038463;28;20448;-84
2023/05/26 05:42:15;;;;;;;15.57;6.80;;;16.00;99.90;;;;;;5069550;28;20872;-91
2023/05/26 05:44:44;;;;;;;9.93;6.13;;;16.00;99.90;;;;;;5062290;28;20459;-88
2023/05/26 05:47:13;;;;;;;15.10;5.90;;;16.20;99.90;;;;;;5072407;28;20428;-82
2023/05/26 05:49:45;;;;;;;8.73;6.97;;;16.30;99.90;;;;;;5059181;28;20533;-85
2023/05/26 05:52:14;;;;;;;7.90;6.40;;;16.50;99.90;;;;;;5066788;28;20414;-86
2023/05/26 05:54:46;;;;;;;11.53;7.07;;;16.80;99.90;;;;;;5057974;28;20422;-87
2023/05/26 05:57:14;;;;;;;12.07;6.73;;;16.70;99.90;;;;;;5035054;28;20746;-83
2023/05/26 05:59:41;;;;;;;9.10;6.20;;;16.90;99.90;;;;;;5060567;28;20571;-83
2023/05/26 06:02:09;;;;;;;10.57;5.93;;;17.00;99.90;;;;;;5058399;28;20445;-86
2023/05/26 06:04:39;;;;;;;8.27;5.70;;;17.20;99.90;;;;;;5060657;28;20550;-85
2023/05/26 06:07:06;;;;;;;10.57;5.97;;;17.40;99.90;;;;;;5068982;28;20454;-81
2023/05/26 06:09:36;;;;;;;10.77;5.60;;;17.90;99.90;;;;;;5038478;28;20466;-86
2023/05/26 06:12:03;;;;;;;10.93;5.30;;;18.20;99.90;;;;;;5056971;28;20456;-85
2023/05/26 06:14:30;;;;;;;8.57;4.93;;;18.40;99.90;;;;;;5057678;28;20431;-85
2023/05/26 06:16:57;;;;;;;7.13;6.00;;;18.50;99.90;;;;;;5063022;28;20608;-86
2023/05/26 06:19:26;;;;;;;12.63;5.97;;;18.50;99.90;;;;;;5074395;28;20455;-83
2023/05/26 06:21:55;;;;;;;11.20;6.30;;;18.10;99.90;;;;;;5069705;28;20792;-86
2023/05/26 06:24:22;;;;;;;13.30;6.57;;;17.90;99.90;;;;;;5063246;28;20422;-86
2023/05/26 06:26:49;;;;;;;10.80;5.73;;;17.80;99.90;;;;;;5052085;28;20479;-84
2023/05/26 06:29:16;;;;;;;32.13;7.53;;;17.70;99.90;;;;;;5047019;28;20428;-85
2023/05/26 06:31:46;;;;;;;10.87;6.13;;;17.90;99.90;;;;;;5059269;28;20419;-83
2023/05/26 06:34:14;;;;;;;12.33;6.30;;;18.10;99.90;;;;;;5053534;28;20411;-82
2023/05/26 06:36:41;;;;;;;11.43;6.50;;;18.30;99.90;;;;;;5078987;28;20420;-84
2023/05/26 06:39:10;;;;;;;18.60;7.10;;;18.60;99.90;;;;;;5076641;28;20499;-80
2023/05/26 06:41:43;;;;;;;9.10;5.20;;;18.60;99.90;;;;;;5055690;28;20430;-81
2023/05/26 06:44:10;;;;;;;8.67;6.90;;;18.90;99.90;;;;;;5064028;28;20450;-84
2023/05/26 06:46:39;;;;;;;7.17;4.90;;;19.20;99.90;;;;;;5070717;28;20515;-84
2023/05/26 06:49:07;;;;;;;10.43;6.40;;;19.50;99.90;;;;;;5064362;28;20455;-83
2023/05/26 06:51:34;;;;;;;11.13;5.67;;;19.70;99.90;;;;;;5054873;28;20638;-86
2023/05/26 06:54:02;;;;;;;7.30;4.67;;;19.60;99.90;;;;;;5080584;28;20439;-82
2023/05/26 06:56:29;;;;;;;13.33;5.23;;;19.60;99.90;;;;;;5062161;28;20416;-84
2023/05/26 06:58:56;;;;;;;12.30;5.67;;;20.40;99.90;;;;;;5061400;28;20503;-86
2023/05/26 07:01:23;;;;;;;8.27;3.90;;;20.90;99.90;;;;;;5064948;28;20411;-83
2023/05/26 07:04:01;;;;;;;;;;;;;;;;;;;;;
2023/05/26 07:06:28;;;;;;;10.60;4.30;;;20.50;99.90;;;;;;5060308;28;20476;-85
2023/05/26 07:09:11;;;;;;;6.73;3.40;;;20.50;99.90;;;;;;5047186;28;20468;-83
2023/05/26 07:11:38;;;;;;;10.30;5.70;;;20.80;99.90;;;;;;5054550;28;20486;-86
2023/05/26 07:14:05;;;;;;;13.20;4.70;;;21.50;99.90;;;;;;5044420;28;20494;-82
2023/05/26 07:16:35;;;;;;;12.33;4.37;;;22.00;99.90;;;;;;5059114;28;20440;-85
2023/05/26 07:19:02;;;;;;;4.90;3.23;;;22.10;99.90;;;;;;5050087;28;20504;-85
2023/05/26 07:21:29;;;;;;;10.40;5.27;;;21.80;99.90;;;;;;5063173;28;20440;-83
2023/05/26 07:23:58;;;;;;;6.33;3.80;;;21.90;99.90;;;;;;5068863;28;20419;-86
2023/05/26 07:26:31;;;;;;;8.43;3.93;;;23.50;99.90;;;;;;5063302;28;20503;-88
2023/05/26 07:29:01;;;;;;;10.93;3.70;;;24.00;99.90;;;;;;5061811;28;20752;-87
2023/05/26 07:31:30;;;;;;;5.80;3.43;;;24.40;99.90;;;;;;5060687;28;20423;-89
2023/05/26 07:33:58;;;;;;;6.50;3.77;;;25.30;99.90;;;;;;5067576;28;20758;-83
2023/05/26 07:36:26;;;;;;;12.13;4.20;;;25.90;99.00;;;;;;5040635;28;20756;-88
2023/05/26 07:38:53;;;;;;;14.63;4.00;;;27.20;96.00;;;;;;5059483;28;20511;-84
2023/05/26 07:41:21;;;;;;;8.70;4.20;;;27.30;93.50;;;;;;5061407;28;21355;-84
2023/05/26 07:43:48;;;;;;;10.43;4.60;;;28.50;88.60;;;;;;5062710;28;20690;-85
2023/05/26 07:46:16;;;;;;;10.57;4.57;;;28.90;83.00;;;;;;5056070;28;21305;-87
2023/05/26 07:48:45;;;;;;;10.43;3.37;;;29.40;77.00;;;;;;5053589;28;20456;-85
2023/05/26 07:51:12;;;;;;;4.00;3.60;;;29.40;75.30;;;;;;5055417;28;20512;-82
2023/05/26 07:53:39;;;;;;;6.57;4.17;;;29.10;75.20;;;;;;5056146;28;20505;-88
2023/05/26 07:56:06;;;;;;;7.17;4.60;;;29.70;72.30;;;;;;5060975;28;20451;-84
2023/05/26 07:58:35;;;;;;;9.60;3.73;;;30.30;69.00;;;;;;5045964;28;20484;-86
2023/05/26 08:01:03;;;;;;;6.03;3.93;;;29.20;70.40;;;;;;5058616;28;20479;-84
2023/05/26 08:03:33;;;;;;;9.43;4.43;;;27.60;75.00;;;;;;5064424;28;20521;-89
2023/05/26 08:06:01;;;;;;;9.20;3.70;;;25.60;88.80;;;;;;5045888;28;20483;-84
2023/05/26 08:08:42;;;;;;;10.23;4.00;;;24.80;92.90;;;;;;5058506;28;20453;-89
2023/05/26 08:11:09;;;;;;;8.37;4.13;;;24.80;94.80;;;;;;5060133;28;20811;-86
2023/05/26 08:13:39;;;;;;;8.67;4.67;;;26.40;91.80;;;;;;5060632;28;20453;-85
2023/05/26 08:16:11;;;;;;;6.67;3.43;;;27.10;88.90;;;;;;5057147;28;20503;-84
2023/05/26 08:18:38;;;;;;;6.20;4.07;;;27.40;86.20;;;;;;5062380;28;20464;-84
2023/05/26 08:21:07;;;;;;;6.20;3.40;;;27.80;81.00;;;;;;5075469;28;20437;-86
2023/05/26 08:23:38;;;;;;;7.70;4.10;;;28.20;79.60;;;;;;5060630;28;20557;-86
2023/05/26 08:26:08;;;;;;;7.67;4.00;;;28.70;74.80;;;;;;5069972;28;20806;-87
2023/05/26 08:28:37;;;;;;;7.60;4.20;;;28.00;77.00;;;;;;5062642;28;20515;-85
2023/05/26 08:31:04;;;;;;;7.50;4.30;;;26.30;82.90;;;;;;5057928;28;20453;-87
2023/05/26 08:33:31;;;;;;;10.33;5.40;;;25.80;86.00;;;;;;5056449;28;20444;-84
2023/05/26 08:35:58;;;;;;;8.27;4.40;;;27.00;83.40;;;;;;5061480;28;20511;-86
2023/05/26 08:38:25;;;;;;;7.00;3.87;;;27.70;79.60;;;;;;5064288;28;20461;-86
2023/05/26 08:40:56;;;;;;;9.30;4.23;;;28.10;77.60;;;;;;5061196;28;20440;-85
2023/05/26 08:43:50;;;;;;;6.83;3.60;;;28.70;72.80;;;;;;5055214;28;20469;-84
2023/05/26 08:46:38;;;;;;;9.80;4.20;;;29.50;70.10;;;;;;5068906;28;20449;-87
2023/05/26 08:49:07;;;;;;;7.03;4.00;;;29.10;65.40;;;;;;5075635;28;20443;-84
2023/05/26 08:51:38;;;;;;;6.10;4.33;;;27.00;71.90;;;;;;5064265;28;20443;-87
2023/05/26 08:54:05;;;;;;;6.73;4.07;;;27.10;74.30;;;;;;5058090;28;20453;-84
2023/05/26 08:56:32;;;;;;;10.10;4.10;;;27.40;75.60;;;;;;5064817;28;20452;-87
2023/05/26 08:59:02;;;;;;;8.33;4.70;;;29.20;71.30;;;;;;5054807;28;20472;-85
2023/05/26 09:01:32;;;;;;;16.23;6.00;;;31.70;63.80;;;;;;5061439;28;20449;-85
2023/05/26 09:03:59;;;;;;;9.10;4.60;;;31.20;58.40;;;;;;5062159;28;20482;-86
2023/05/26 09:06:26;;;;;;;9.20;4.80;;;29.30;62.50;;;;;;5054158;28;20449;-83
2023/05/26 09:08:53;;;;;;;8.47;3.93;;;29.30;64.90;;;;;;5070032;28;20450;-85
2023/05/26 09:11:21;;;;;;;8.40;4.27;;;28.80;67.50;;;;;;5072008;28;20453;-86
2023/05/26 09:13:52;;;;;;;7.30;4.13;;;27.40;70.00;;;;;;5062948;28;20800;-87
2023/05/26 09:16:24;;;;;;;7.27;4.07;;;25.70;75.30;;;;;;5046219;28;20429;-87
2023/05/26 09:19:00;;;;;;;9.00;4.60;;;24.50;84.10;;;;;;5070152;28;20599;-85
2023/05/26 09:21:29;;;;;;;6.90;3.60;;;24.80;88.20;;;;;;5046830;28;20736;-83
2023/05/26 09:23:58;;;;;;;8.20;3.93;;;27.40;79.60;;;;;;5054769;28;20452;-84
2023/05/26 09:26:35;;;;;;;8.00;3.50;;;29.00;72.90;;;;;;5050397;28;20434;-87
2023/05/26 09:29:04;;;;;;;9.50;4.90;;;29.10;68.10;;;;;;5070203;28;20436;-82
2023/05/26 09:31:42;;;;;;;11.17;4.60;;;27.50;73.30;;;;;;5077218;28;20451;-86
2023/05/26 09:34:10;;;;;;;13.97;3.90;;;25.60;81.80;;;;;;5074835;28;20443;-86
2023/05/26 09:36:38;;;;;;;8.23;3.90;;;24.50;90.30;;;;;;5066650;28;20467;-85
2023/05/26 09:39:10;;;;;;;11.30;4.03;;;23.70;93.00;;;;;;5068503;28;20818;-85
2023/05/26 09:41:40;;;;;;;11.93;4.73;;;22.90;97.80;;;;;;5063519;28;20433;-83
2023/05/26 09:44:12;;;;;;;9.73;3.87;;;22.70;99.90;;;;;;5068120;28;20491;-84
2023/05/26 09:46:41;;;;;;;7.40;4.10;;;22.60;99.90;;;;;;5076080;28;20443;-83
2023/05/26 09:49:21;;;;;;;10.40;3.93;;;22.60;99.90;;;;;;5043871;28;20765;-85
2023/05/26 09:51:49;;;;;;;8.53;4.27;;;22.40;99.90;;;;;;5067999;28;20749;-83
2023/05/26 09:54:36;;;;;;;5.03;3.73;;;22.00;99.90;;;;;;5055805;28;20475;-85
2023/05/26 09:57:09;;;;;;;6.03;3.10;;;21.50;99.90;;;;;;5059167;28;20842;-87
2023/05/26 09:59:44;;;;;;;7.20;5.30;;;21.10;99.90;;;;;;5038860;28;20446;-86
2023/05/26 10:02:22;;;;;;;6.97;3.93;;;21.10;99.90;;;;;;5059275;28;20420;-86
2023/05/26 10:04:51;;;;;;;7.00;3.73;;;21.30;99.90;;;;;;5057553;28;20408;-83
2023/05/26 10:07:22;;;;;;;9.87;3.77;;;21.00;99.90;;;;;;5055493;28;20421;-85
2023/05/26 10:09:57;;;;;;;7.30;3.60;;;20.90;99.90;;;;;;5064883;28;20434;-83
2023/05/26 10:12:34;;;;;;;10.43;4.70;;;21.00;99.90;;;;;;5059547;28;20442;-86
2023/05/26 10:15:03;;;;;;;4.60;3.33;;;20.80;99.90;;;;;;5067160;28;20440;-87
2023/05/26 10:17:30;;;;;;;7.67;3.80;;;21.00;99.90;;;;;;5049205;28;20445;-83
2023/05/26 10:20:00;;;;;;;7.60;3.07;;;21.10;99.90;;;;;;5052020;28;20576;-84
2023/05/26 10:22:46;;;;;;;5.67;3.30;;;20.90;99.40;;;;;;5054272;28;20510;-85
2023/05/26 10:25:26;;;;;;;10.30;3.80;;;20.70;99.90;;;;;;5054454;28;20479;-86
2023/05/26 10:27:59;;;;;;;8.30;3.00;;;20.90;99.90;;;;;;5072849;28;20413;-82
2023/05/26 10:30:26;;;;;;;8.07;3.70;;;21.40;99.90;;;;;;5055100;28;20437;-88
2023/05/26 10:33:07;;;;;;;9.63;3.83;;;21.60;99.90;;;;;;5069565;28;20444;-83
2023/05/26 10:35:35;;;;;;;9.67;3.47;;;21.30;99.90;;;;;;5058581;28;20813;-84
2023/05/26 10:38:01;;;;;;;7.13;3.03;;;21.20;99.90;;;;;;5059149;28;20441;-84
2023/05/26 10:40:50;;;;;;;12.10;3.23;;;21.30;99.90;;;;;;5063592;28;20480;-89
2023/05/26 10:43:24;;;;;;;5.50;3.23;;;20.70;99.90;;;;;;5070249;28;20414;-86
2023/05/26 10:45:54;;;;;;;6.30;3.53;;;20.50;99.90;;;;;;5057944;28;20429;-83
2023/05/26 10:48:25;;;;;;;6.50;2.70;;;20.50;99.90;;;;;;5056625;28;20922;-87
2023/05/26 10:51:04;;;;;;;5.63;2.70;;;20.90;98.40;;;;;;5061748;28;20437;-87
2023/05/26 10:53:32;;;;;;;6.97;4.23;;;21.20;95.60;;;;;;5070459;28;20412;-86
2023/05/26 10:56:05;;;;;;;5.00;3.33;;;21.50;95.80;;;;;;5055443;28;20462;-87
2023/05/26 10:58:33;;;;;;;5.93;2.97;;;22.20;91.70;;;;;;5060513;28;20464;-83
2023/05/26 11:01:12;;;;;;;7.00;3.27;;;22.40;83.60;;;;;;5054714;28;20472;-83
2023/05/26 11:03:47;;;;;;;4.57;3.30;;;22.30;85.80;;;;;;5052961;28;20447;-82
2023/05/26 11:06:17;;;;;;;6.83;3.60;;;22.30;89.70;;;;;;5068924;28;20766;-85
2023/05/26 11:08:48;;;;;;;8.73;3.60;;;22.40;91.50;;;;;;5046407;28;20468;-85
2023/05/26 11:11:30;;;;;;;4.60;2.60;;;22.20;92.60;;;;;;5062651;28;20419;-86
2023/05/26 11:14:09;;;;;;;4.20;3.17;;;21.80;91.70;;;;;;5058049;28;20681;-87
2023/05/26 11:16:39;;;;;;;4.03;2.83;;;21.60;92.90;;;;;;5067985;28;20423;-88
2023/05/26 11:19:08;;;;;;;16.67;3.27;;;21.60;94.80;;;;;;5055232;28;20479;-90
2023/05/26 11:21:36;;;;;;;9.70;3.70;;;21.50;94.90;;;;;;5057459;28;20441;-85
2023/05/26 11:24:04;;;;;;;6.80;3.37;;;21.70;94.00;;;;;;5064559;28;20455;-86
2023/05/26 11:26:33;;;;;;;4.83;3.30;;;21.70;94.80;;;;;;5063478;28;20452;-85
2023/05/26 11:29:02;;;;;;;4.00;2.80;;;21.20;96.60;;;;;;5044655;28;20517;-83
2023/05/26 11:31:29;;;;;;;3.60;2.77;;;21.00;97.50;;;;;;5066119;28;20443;-83
2023/05/26 11:33:57;;;;;;;11.00;3.70;;;21.00;98.40;;;;;;5065443;28;20480;-83
2023/05/26 11:39:06;;;;;;;4.70;3.30;;;21.30;98.80;;;;;;5005457;28;20446;-86
2023/05/26 11:41:34;;;;;;;9.17;3.70;;;21.40;99.80;;;;;;4988337;28;20432;-89
2023/05/26 11:44:08;;;;;;;7.13;3.70;;;21.60;99.90;;;;;;5005597;28;20447;-88
2023/05/26 11:46:40;;;;;;;4.87;3.13;;;21.80;99.30;;;;;;5006320;28;20597;-86
2023/05/26 11:49:14;;;;;;;6.57;3.20;;;21.90;98.20;;;;;;5005629;28;20433;-86
2023/05/26 11:51:50;;;;;;;6.33;3.17;;;21.70;98.80;;;;;;4986847;28;20428;-84
2023/05/26 11:54:18;;;;;;;8.23;3.13;;;21.60;97.70;;;;;;5004658;28;20628;-83
2023/05/26 11:56:46;;;;;;;7.17;2.57;;;21.40;97.60;;;;;;5004857;28;20435;-86
2023/05/26 11:59:18;;;;;;;4.20;2.60;;;21.40;96.70;;;;;;4986456;28;20784;-84
2023/05/26 12:01:46;;;;;;;8.20;2.83;;;21.10;93.80;;;;;;5004453;28;20418;-87
2023/05/26 12:04:13;;;;;;;3.03;2.53;;;20.90;94.20;;;;;;5003034;28;20410;-84
2023/05/26 12:06:43;;;;;;;3.67;2.23;;;20.80;93.60;;;;;;5011700;28;20401;-84
2023/05/26 12:09:22;;;;;;;4.83;2.70;;;20.60;93.30;;;;;;5009152;28;20406;-83
2023/05/26 12:11:51;;;;;;;6.27;2.93;;;20.60;95.10;;;;;;5011972;28;20418;-84
2023/05/26 12:14:18;;;;;;;8.70;3.27;;;20.90;95.00;;;;;;5008443;28;20410;-84
2023/05/26 12:16:47;;;;;;;6.57;3.27;;;21.30;94.20;;;;;;5006960;28;20503;-86
2023/05/26 12:19:18;;;;;;;8.50;3.60;;;21.40;92.40;;;;;;5006381;28;20433;-87
2023/05/26 12:21:47;;;;;;;4.10;2.90;;;21.30;90.40;;;;;;5006171;28;20478;-86
2023/05/26 12:24:28;;;;;;;6.43;3.23;;;21.10;92.90;;;;;;5007404;28;20513;-83
2023/05/26 12:26:55;;;;;;;6.20;3.63;;;21.20;94.80;;;;;;5063029;23;20477;-88
2023/05/26 12:29:23;;;;;;;6.27;3.07;;;21.00;96.40;;;;;;4977007;28;20479;-87
2023/05/26 12:31:52;;;;;;;8.47;3.63;;;21.40;96.70;;;;;;4978947;28;20454;-88
2023/05/26 12:34:27;;;;;;;10.50;3.40;;;21.70;96.10;;;;;;4990833;28;20489;-86
2023/05/26 12:36:54;;;;;;;7.10;4.00;;;22.00;96.50;;;;;;4965794;28;20452;-87
2023/05/26 12:39:21;;;;;;;6.47;3.13;;;22.00;97.40;;;;;;4979811;28;20848;-88
2023/05/26 12:41:48;;;;;;;10.73;3.73;;;22.00;97.80;;;;;;4981848;28;20451;-89
2023/05/26 12:44:16;;;;;;;3.93;2.80;;;21.90;97.40;;;;;;4985578;28;20443;-85
2023/05/26 12:46:44;;;;;;;18.00;4.83;;;21.90;98.30;;;;;;4993437;28;20450;-86
2023/05/26 12:49:12;;;;;;;5.67;3.47;;;21.80;99.70;;;;;;4985070;28;20437;-84
2023/05/26 12:51:41;;;;;;;10.43;3.50;;;21.60;99.90;;;;;;4967763;28;20654;-85
2023/05/26 12:54:09;;;;;;;5.57;3.50;;;21.60;99.90;;;;;;4983567;28;20500;-84
2023/05/26 12:56:37;;;;;;;5.93;2.87;;;21.80;99.90;;;;;;5088689;23;20622;-84
2023/05/26 12:59:05;;;;;;;6.93;2.97;;;21.60;99.90;;;;;;5022584;28;20504;-86
2023/05/26 13:01:46;;;;;;;6.67;2.77;;;21.50;99.90;;;;;;5021485;28;20466;-86